Little Lake, Michigan
Current Conditions -  °F | °C
As of 12:37 AM on Friday 28 Nov 2014 (Local Time) from KSAW Reporting Station
Scattered Clouds Scattered Clouds  
Wind Chill: -10°   Ceiling: Unl
Heat Index:   Visibility: 10mi
Dew Point: -3°   Wind: 6mph
Humidity: 85%   Direction: 270°W
Pressure: 30.25"   Gusts: NA
Location:  46.29°N, 87.34°W
Report Text: KSAW 280537Z AUTO 27005KT 10SM SCT025 M17/M19 A3025 RMK AO2 T11721192
Loading
Personal Weather Stations






























Interactive Weather Map New forecast layout! Learn more

10-Day Weather Forecast

Advertisements
Track Severe Weather on mobile